createdAt,value
2023-12-22T00:01:06.148Z,1.60
2023-12-22T00:03:34.352Z,3.00
2023-12-22T00:06:04.074Z,3.50
2023-12-22T00:08:32.107Z,3.30
2023-12-22T00:11:00.374Z,3.47
2023-12-22T00:13:28.950Z,2.40
2023-12-22T00:15:57.040Z,3.30
2023-12-22T00:18:25.208Z,3.20
2023-12-22T00:20:53.235Z,2.93
2023-12-22T00:23:22.626Z,3.10
2023-12-22T00:25:50.841Z,2.40
2023-12-22T00:28:19.056Z,3.33
2023-12-22T00:30:47.087Z,2.40
2023-12-22T00:33:15.204Z,2.30
2023-12-22T00:35:43.257Z,2.50
2023-12-22T00:38:11.453Z,2.87
2023-12-22T00:53:19.782Z,0.80
2023-12-22T00:55:47.872Z,0.80
2023-12-22T00:58:15.891Z,0.80
2023-12-22T01:00:44.215Z,0.80
2023-12-22T01:03:13.138Z,0.80
2023-12-22T01:05:41.652Z,0.80
2023-12-22T01:08:10.032Z,0.87
2023-12-22T01:10:39.621Z,0.90
2023-12-22T01:13:07.719Z,0.80
2023-12-22T01:15:35.758Z,0.90
2023-12-22T01:18:04.148Z,0.90
2023-12-22T01:20:32.769Z,0.90
2023-12-22T01:23:00.966Z,0.80
2023-12-22T01:25:29.209Z,0.90
2023-12-22T01:28:03.780Z,1.00
2023-12-22T01:30:33.557Z,0.90
2023-12-22T01:33:01.768Z,0.90
2023-12-22T01:35:30.007Z,0.97
2023-12-22T01:37:58.276Z,1.00
2023-12-22T01:40:26.435Z,0.97
2023-12-22T01:42:54.516Z,0.90
2023-12-22T01:45:23.872Z,0.90
2023-12-22T01:47:52.290Z,1.00
2023-12-22T01:50:20.896Z,0.90
2023-12-22T01:52:49.300Z,0.90
2023-12-22T01:55:19.119Z,1.00
2023-12-22T01:57:48.775Z,1.00
2023-12-22T02:00:17.437Z,1.00
2023-12-22T02:02:46.942Z,0.90
2023-12-22T02:05:15.235Z,1.00
2023-12-22T02:07:44.320Z,1.00
2023-12-22T02:10:12.822Z,0.90
2023-12-22T02:12:40.926Z,1.00
2023-12-22T02:15:09.948Z,1.00
2023-12-22T02:17:47.165Z,1.20
2023-12-22T02:20:17.291Z,1.00
2023-12-22T02:22:46.720Z,1.10
2023-12-22T02:25:14.819Z,1.00
2023-12-22T02:27:47.602Z,1.00
2023-12-22T02:30:22.486Z,1.00
2023-12-22T02:32:53.289Z,0.90
2023-12-22T02:35:23.528Z,1.10
2023-12-22T02:37:54.958Z,1.10
2023-12-22T02:40:23.830Z,1.10
2023-12-22T02:42:53.046Z,1.00
2023-12-22T02:45:21.906Z,1.07
2023-12-22T02:47:50.528Z,1.00
2023-12-22T02:50:19.350Z,1.00
2023-12-22T02:52:47.568Z,1.00
2023-12-22T02:55:17.054Z,1.00
2023-12-22T02:57:45.104Z,1.00
2023-12-22T03:00:14.075Z,0.90
2023-12-22T03:02:42.085Z,1.10
2023-12-22T03:05:10.337Z,0.90
2023-12-22T03:07:38.404Z,1.07
2023-12-22T03:10:06.844Z,1.10
2023-12-22T03:12:36.196Z,1.10
2023-12-22T03:15:04.440Z,1.10
2023-12-22T03:17:32.515Z,1.10
2023-12-22T03:20:00.750Z,1.00
2023-12-22T03:22:28.912Z,1.00
2023-12-22T03:24:56.935Z,1.00
2023-12-22T03:27:24.920Z,1.10
2023-12-22T03:29:53.302Z,1.17
2023-12-22T03:32:21.741Z,1.10
2023-12-22T03:34:50.005Z,1.00
2023-12-22T03:37:18.060Z,1.10
2023-12-22T03:39:46.098Z,0.90
2023-12-22T03:42:14.251Z,1.00
2023-12-22T03:44:42.248Z,1.00
2023-12-22T03:47:11.572Z,0.93
2023-12-22T03:49:39.608Z,1.10
2023-12-22T03:52:07.700Z,0.90
2023-12-22T03:54:35.749Z,1.00
2023-12-22T03:57:03.817Z,1.10
2023-12-22T03:59:31.822Z,1.00
2023-12-22T04:02:02.427Z,0.90
2023-12-22T04:04:32.199Z,1.00
2023-12-22T04:07:00.389Z,0.90
2023-12-22T04:09:28.421Z,1.00
2023-12-22T04:11:56.569Z,1.00
2023-12-22T04:14:24.612Z,1.07
2023-12-22T04:16:54.187Z,0.90
2023-12-22T04:19:22.632Z,0.90
2023-12-22T04:21:52.261Z,0.97
2023-12-22T04:24:20.364Z,0.90
2023-12-22T04:26:48.550Z,1.00
2023-12-22T04:29:16.600Z,2.07
2023-12-22T04:31:44.625Z,2.17
2023-12-22T04:34:13.514Z,2.40
2023-12-22T04:36:41.588Z,2.40
2023-12-22T04:39:10.983Z,1.90
2023-12-22T04:41:39.098Z,2.37
2023-12-22T04:44:07.168Z,2.03
2023-12-22T04:46:35.285Z,2.13
2023-12-22T04:49:03.609Z,2.47
2023-12-22T04:51:31.929Z,3.00
2023-12-22T04:54:00.097Z,2.80
2023-12-22T04:56:29.997Z,2.30
2023-12-22T04:58:58.081Z,2.93
2023-12-22T05:01:26.213Z,1.93
2023-12-22T05:03:55.181Z,2.70
2023-12-22T05:06:23.170Z,2.50
2023-12-22T05:08:51.168Z,3.10
2023-12-22T05:11:19.152Z,2.27
2023-12-22T05:13:49.251Z,2.40
2023-12-22T05:16:17.347Z,2.40
2023-12-22T05:18:45.414Z,2.80
2023-12-22T05:21:15.716Z,2.37
2023-12-22T05:23:43.702Z,2.03
2023-12-22T05:26:11.756Z,2.47
2023-12-22T05:28:39.882Z,2.47
2023-12-22T05:31:09.628Z,2.03
2023-12-22T05:33:37.632Z,2.13
2023-12-22T05:36:06.452Z,2.40
2023-12-22T05:38:34.741Z,2.23
2023-12-22T05:41:02.834Z,2.63
2023-12-22T05:43:31.087Z,1.97
2023-12-22T05:45:59.731Z,2.27
2023-12-22T05:48:29.646Z,2.07
2023-12-22T05:50:58.810Z,2.00
2023-12-22T05:53:26.810Z,2.43
2023-12-22T05:55:54.931Z,2.17
2023-12-22T05:58:23.125Z,3.20
2023-12-22T06:00:51.432Z,2.93
2023-12-22T06:03:19.588Z,2.83
2023-12-22T06:05:49.724Z,2.23
2023-12-22T06:08:17.742Z,2.10
2023-12-22T06:10:46.441Z,2.13
2023-12-22T06:13:14.725Z,1.97
2023-12-22T06:15:43.014Z,1.97
2023-12-22T06:18:11.147Z,2.33
2023-12-22T06:20:39.200Z,2.63
2023-12-22T06:23:08.676Z,2.80
2023-12-22T06:25:36.773Z,2.10
2023-12-22T06:28:05.181Z,2.57
2023-12-22T06:30:33.233Z,2.30
2023-12-22T06:33:02.324Z,2.40
2023-12-22T06:35:30.437Z,2.13
2023-12-22T06:38:02.586Z,2.93
2023-12-22T06:40:32.285Z,2.07
2023-12-22T06:43:00.348Z,1.83
2023-12-22T06:45:28.458Z,2.97
2023-12-22T06:47:57.396Z,3.00
2023-12-22T06:50:25.609Z,2.50
2023-12-22T06:52:53.980Z,2.30
2023-12-22T06:55:22.172Z,2.40
2023-12-22T06:57:52.322Z,3.10
2023-12-22T07:00:20.932Z,3.00
2023-12-22T07:02:49.119Z,2.87
2023-12-22T07:05:37.881Z,3.87
2023-12-22T07:08:07.394Z,3.37
2023-12-22T07:10:35.753Z,2.50
2023-12-22T07:13:06.143Z,2.27
2023-12-22T07:15:34.904Z,2.37
2023-12-22T07:18:03.347Z,3.23
2023-12-22T07:20:31.672Z,1.77
2023-12-22T07:22:59.879Z,2.27
2023-12-22T07:25:28.423Z,2.10
2023-12-22T07:27:56.963Z,2.17
2023-12-22T07:30:26.520Z,2.60
2023-12-22T07:32:55.104Z,2.70
2023-12-22T07:35:23.932Z,2.10
2023-12-22T07:37:52.284Z,2.47
2023-12-22T07:40:21.525Z,2.40
2023-12-22T07:42:51.680Z,2.00
2023-12-22T07:45:21.146Z,1.63
2023-12-22T07:47:51.247Z,2.80
2023-12-22T07:50:20.651Z,2.40
2023-12-22T07:52:49.048Z,2.03
2023-12-22T07:55:17.229Z,2.53
2023-12-22T07:57:46.707Z,2.10
2023-12-22T08:00:15.967Z,2.03
2023-12-22T08:02:44.056Z,2.37
2023-12-22T08:05:13.916Z,2.30
2023-12-22T08:07:42.240Z,1.63
2023-12-22T08:10:11.171Z,1.70
2023-12-22T08:12:39.304Z,2.10
2023-12-22T08:15:08.792Z,1.80
2023-12-22T08:17:37.117Z,1.50
2023-12-22T08:20:12.263Z,1.97
2023-12-22T08:22:46.938Z,1.87
2023-12-22T08:25:16.032Z,2.47
2023-12-22T08:27:44.396Z,2.00
2023-12-22T08:30:13.140Z,2.20
2023-12-22T08:32:41.757Z,2.00
2023-12-22T08:35:10.390Z,1.90
2023-12-22T08:37:39.051Z,1.73
2023-12-22T08:40:10.897Z,1.87
2023-12-22T08:42:40.417Z,2.20
2023-12-22T08:45:09.502Z,2.13
2023-12-22T08:47:37.541Z,2.03
2023-12-22T08:50:09.232Z,2.07
2023-12-22T08:52:37.521Z,1.67
2023-12-22T08:55:06.539Z,1.87
2023-12-22T08:57:36.079Z,1.90
2023-12-22T09:00:05.392Z,2.47
2023-12-22T09:02:33.495Z,2.33
2023-12-22T09:05:03.182Z,1.50
2023-12-22T09:07:31.316Z,2.33
2023-12-22T09:09:59.298Z,2.90
2023-12-22T09:12:27.582Z,2.20
2023-12-22T09:14:56.958Z,2.23
2023-12-22T09:17:26.447Z,1.73
2023-12-22T09:19:54.805Z,1.67
2023-12-22T09:22:23.730Z,2.13
2023-12-22T09:24:52.163Z,1.83
2023-12-22T09:27:21.012Z,2.20
2023-12-22T09:29:49.200Z,1.80
2023-12-22T09:32:19.014Z,1.80
2023-12-22T09:34:47.065Z,2.00
2023-12-22T09:37:15.826Z,1.80
2023-12-22T09:39:43.865Z,1.63
2023-12-22T09:42:11.907Z,1.90
2023-12-22T09:44:41.076Z,2.10
2023-12-22T09:47:09.865Z,1.70
2023-12-22T09:49:40.766Z,2.33
2023-12-22T09:52:09.816Z,1.83
2023-12-22T09:54:39.284Z,2.10
2023-12-22T09:57:15.582Z,2.27
2023-12-22T09:59:53.366Z,1.90
2023-12-22T10:02:22.076Z,2.30
2023-12-22T10:04:51.588Z,2.70
2023-12-22T10:07:19.828Z,1.60
2023-12-22T10:09:49.908Z,1.50
2023-12-22T10:12:19.046Z,2.60
2023-12-22T10:14:47.555Z,2.13
2023-12-22T10:17:16.880Z,2.70
2023-12-22T10:19:45.270Z,1.90
2023-12-22T10:22:14.675Z,2.10
2023-12-22T10:24:48.388Z,1.63
2023-12-22T10:27:17.867Z,2.07
2023-12-22T10:29:46.043Z,1.80
2023-12-22T10:32:15.276Z,2.00
2023-12-22T10:34:44.134Z,2.60
2023-12-22T10:37:14.631Z,1.40
2023-12-22T10:39:43.032Z,2.20
2023-12-22T10:42:12.145Z,1.83
2023-12-22T10:44:44.364Z,2.17
2023-12-22T10:47:12.751Z,2.53
2023-12-22T10:49:41.597Z,1.73
2023-12-22T10:52:17.358Z,2.30
2023-12-22T10:54:45.935Z,2.50
2023-12-22T10:57:14.795Z,1.80
2023-12-22T10:59:57.114Z,2.23
2023-12-22T11:02:31.062Z,1.83
2023-12-22T11:05:06.355Z,2.60
2023-12-22T11:07:39.107Z,2.20
2023-12-22T11:10:09.244Z,1.67
2023-12-22T11:12:38.588Z,2.33
2023-12-22T11:15:08.872Z,1.90
2023-12-22T11:17:41.210Z,2.77
2023-12-22T11:20:12.128Z,1.40
2023-12-22T11:22:42.528Z,2.13
2023-12-22T11:25:13.477Z,1.93
2023-12-22T11:27:45.995Z,1.77
2023-12-22T11:30:16.120Z,1.10
2023-12-22T11:32:47.963Z,1.00
2023-12-22T11:35:16.602Z,1.17
2023-12-22T11:37:47.637Z,1.00
2023-12-22T11:40:16.090Z,1.00
2023-12-22T11:42:51.512Z,1.00
2023-12-22T11:45:21.226Z,1.00
2023-12-22T11:47:50.252Z,1.00
2023-12-22T11:50:31.448Z,1.20
2023-12-22T11:53:20.194Z,1.00
2023-12-22T11:56:02.089Z,1.03
2023-12-22T11:58:40.773Z,1.10
2023-12-22T12:01:10.642Z,1.10
2023-12-22T12:03:42.676Z,1.10
2023-12-22T12:06:17.623Z,1.10
2023-12-22T12:08:47.232Z,1.00
2023-12-22T12:11:15.245Z,0.90
2023-12-22T12:13:46.903Z,1.00
2023-12-22T12:16:15.604Z,1.10
2023-12-22T12:18:44.635Z,1.00
2023-12-22T12:21:13.565Z,1.00
2023-12-22T12:23:43.625Z,1.10
2023-12-22T12:26:14.031Z,1.10
2023-12-22T12:28:48.501Z,1.10
2023-12-22T12:31:16.580Z,0.93
2023-12-22T12:33:45.293Z,1.10
2023-12-22T12:36:14.420Z,1.10
2023-12-22T12:38:48.041Z,1.10
2023-12-22T12:41:18.409Z,1.10
2023-12-22T12:43:47.347Z,1.10
2023-12-22T12:46:16.258Z,0.90
2023-12-22T12:48:44.407Z,1.10
2023-12-22T12:51:12.947Z,1.20
2023-12-22T12:53:41.072Z,1.10
2023-12-22T12:56:09.435Z,1.10
2023-12-22T12:58:40.573Z,1.07
2023-12-22T13:01:20.657Z,1.00
2023-12-22T13:03:55.212Z,1.10
2023-12-22T13:06:23.401Z,1.00
2023-12-22T13:08:51.987Z,1.00
2023-12-22T13:11:23.712Z,0.90
2023-12-22T13:13:53.687Z,1.10
2023-12-22T13:16:22.451Z,1.10
2023-12-22T13:18:51.016Z,1.00
2023-12-22T13:21:19.222Z,1.10
2023-12-22T13:23:47.442Z,1.00
2023-12-22T13:26:21.536Z,1.10
2023-12-22T13:28:49.639Z,1.00
2023-12-22T13:31:20.519Z,1.20
2023-12-22T13:33:48.605Z,1.03
2023-12-22T13:36:16.974Z,1.10
2023-12-22T13:38:48.952Z,1.20
2023-12-22T13:41:18.085Z,1.10
2023-12-22T13:43:46.615Z,1.17
2023-12-22T13:46:15.683Z,1.10
2023-12-22T13:48:45.506Z,1.00
2023-12-22T13:51:14.769Z,1.00
2023-12-22T13:53:52.149Z,0.97
2023-12-22T13:56:21.369Z,1.00
2023-12-22T13:58:49.976Z,1.20
2023-12-22T14:01:18.906Z,1.10
2023-12-22T14:03:48.410Z,1.10
2023-12-22T14:06:17.470Z,1.20
2023-12-22T14:08:45.491Z,1.00
2023-12-22T14:11:14.145Z,1.10
2023-12-22T14:13:42.536Z,1.03
2023-12-22T14:16:10.681Z,1.20
2023-12-22T14:18:39.009Z,1.10
2023-12-22T14:21:08.466Z,1.10
2023-12-22T14:23:36.445Z,1.20
2023-12-22T14:26:04.746Z,1.10
2023-12-22T14:28:32.785Z,1.10
2023-12-22T14:31:00.854Z,1.17
2023-12-22T14:33:28.927Z,1.10
2023-12-22T14:35:57.146Z,1.20
2023-12-22T14:38:26.469Z,1.20
2023-12-22T14:40:54.564Z,1.10
2023-12-22T14:43:22.705Z,1.10
2023-12-22T14:45:50.970Z,1.10
2023-12-22T14:48:19.467Z,1.10
2023-12-22T14:50:47.517Z,1.10
2023-12-22T14:53:15.956Z,1.10
2023-12-22T14:55:45.607Z,1.20
2023-12-22T14:58:15.259Z,1.10
2023-12-22T15:00:43.360Z,1.10
2023-12-22T15:03:11.527Z,1.00
2023-12-22T15:05:39.903Z,1.10
2023-12-22T15:08:08.964Z,1.20
2023-12-22T15:10:38.286Z,1.10
2023-12-22T15:13:07.833Z,1.20
2023-12-22T15:15:36.008Z,1.37
2023-12-22T15:18:04.126Z,1.10
2023-12-22T15:20:40.698Z,1.10
2023-12-22T15:23:08.906Z,1.13
2023-12-22T15:25:37.197Z,1.10
2023-12-22T15:28:09.652Z,1.10
2023-12-22T15:30:37.781Z,1.13
2023-12-22T15:33:06.468Z,1.10
2023-12-22T15:35:34.581Z,1.10
2023-12-22T15:38:02.986Z,1.10
2023-12-22T15:40:31.069Z,1.00
2023-12-22T15:42:59.051Z,1.10
2023-12-22T15:45:28.431Z,1.00
2023-12-22T15:47:56.551Z,1.00
2023-12-22T15:50:24.711Z,1.10
2023-12-22T15:52:52.961Z,1.00
2023-12-22T15:55:21.271Z,1.10
2023-12-22T15:57:49.413Z,1.10
2023-12-22T16:00:19.049Z,1.10
2023-12-22T16:02:50.451Z,1.10
2023-12-22T16:14:15.437Z,1.00
2023-12-22T16:37:31.571Z,1.10
2023-12-22T16:46:53.172Z,1.13
2023-12-22T16:49:22.558Z,1.10
2023-12-22T16:52:08.242Z,1.20
2023-12-22T16:54:39.708Z,1.10
2023-12-22T16:57:13.151Z,1.10
2023-12-22T16:59:41.841Z,1.90
2023-12-22T17:02:27.777Z,2.10
2023-12-22T17:05:01.801Z,2.67
2023-12-22T17:07:34.002Z,2.20
2023-12-22T17:10:05.428Z,2.20
2023-12-22T17:12:33.810Z,2.37
2023-12-22T17:15:01.958Z,2.00
2023-12-22T17:20:03.503Z,1.97
2023-12-22T17:22:32.336Z,2.10
2023-12-22T17:25:00.560Z,2.43
2023-12-22T17:27:28.681Z,2.47
2023-12-22T17:29:56.829Z,1.80
2023-12-22T17:32:24.974Z,2.90
2023-12-22T17:34:54.534Z,1.93
2023-12-22T17:37:22.680Z,2.40
2023-12-22T17:39:50.772Z,1.93
2023-12-22T17:42:18.853Z,2.80
2023-12-22T17:44:46.965Z,2.10
2023-12-22T17:47:20.975Z,3.90
2023-12-22T17:49:49.327Z,2.90
2023-12-22T17:52:21.175Z,2.53
2023-12-22T17:54:49.261Z,2.30
2023-12-22T17:57:17.419Z,2.50
2023-12-22T17:59:47.195Z,2.13
2023-12-22T18:02:19.288Z,2.67
2023-12-22T18:04:47.452Z,2.93
2023-12-22T18:07:15.600Z,2.40
2023-12-22T18:09:46.253Z,2.00
2023-12-22T18:12:15.578Z,1.63
2023-12-22T18:14:43.666Z,2.50
2023-12-22T18:17:11.833Z,2.00
2023-12-22T18:19:39.978Z,2.53
2023-12-22T18:22:08.257Z,2.63
2023-12-22T18:24:37.674Z,2.50
2023-12-22T18:27:07.501Z,2.10
2023-12-22T18:29:37.463Z,3.07
2023-12-22T18:32:06.776Z,2.93
2023-12-22T18:34:35.080Z,1.90
2023-12-22T18:37:03.352Z,2.17
2023-12-22T18:39:39.521Z,2.27
2023-12-22T18:42:09.098Z,2.03
2023-12-22T18:44:37.268Z,2.30
2023-12-22T18:47:05.764Z,2.53
2023-12-22T18:49:34.395Z,2.20
2023-12-22T18:52:05.628Z,2.87
2023-12-22T18:54:33.790Z,2.10
2023-12-22T18:57:01.888Z,2.67
2023-12-22T18:59:31.806Z,1.90
2023-12-22T19:02:15.707Z,2.73
2023-12-22T19:04:49.741Z,1.80
2023-12-22T19:11:10.306Z,2.00
2023-12-22T19:13:41.224Z,2.20
2023-12-22T19:16:11.252Z,2.07
2023-12-22T19:18:38.694Z,1.90
2023-12-22T19:21:06.999Z,2.07
2023-12-22T19:23:35.134Z,2.50
2023-12-22T19:26:05.687Z,1.70
2023-12-22T19:28:33.963Z,2.00
2023-12-22T19:31:02.223Z,2.40
2023-12-22T19:33:32.367Z,1.97
2023-12-22T19:36:01.132Z,3.07
2023-12-22T19:38:29.305Z,2.43
2023-12-22T19:40:57.452Z,2.60
2023-12-22T19:43:25.645Z,1.77
2023-12-22T19:45:54.353Z,1.73
2023-12-22T19:48:22.702Z,1.53
2023-12-22T19:50:54.987Z,2.30
2023-12-22T19:53:23.294Z,2.33
2023-12-22T19:55:51.449Z,2.23
2023-12-22T19:58:20.258Z,1.97
2023-12-22T20:00:48.340Z,2.77
2023-12-22T20:03:16.586Z,2.53
2023-12-22T20:05:47.176Z,2.10
2023-12-22T20:11:48.479Z,2.90
2023-12-22T20:14:16.626Z,2.33
2023-12-22T20:16:45.664Z,2.43
2023-12-22T20:19:13.853Z,2.07
2023-12-22T20:21:42.982Z,1.90
2023-12-22T20:24:11.050Z,1.70
2023-12-22T20:26:39.134Z,2.20
2023-12-22T20:29:09.761Z,2.30
2023-12-22T20:31:38.662Z,2.07
2023-12-22T20:34:07.167Z,1.70
2023-12-22T20:36:35.752Z,2.77
2023-12-22T20:39:03.891Z,2.50
2023-12-22T20:41:32.027Z,2.10
2023-12-22T20:44:00.215Z,1.60
2023-12-22T20:46:30.066Z,1.77
2023-12-22T20:48:58.459Z,2.63
2023-12-22T20:51:26.680Z,2.00
2023-12-22T20:53:54.736Z,1.93
2023-12-22T20:56:24.551Z,1.80
2023-12-22T20:58:54.491Z,2.07
2023-12-22T21:01:22.925Z,2.20
2023-12-22T21:03:52.498Z,2.13
2023-12-22T21:06:20.881Z,2.20
2023-12-22T21:08:53.152Z,2.00
2023-12-22T21:11:26.240Z,2.07
2023-12-22T21:13:54.340Z,1.80
2023-12-22T21:16:22.698Z,2.07
2023-12-22T21:18:52.381Z,1.60
2023-12-22T21:21:20.640Z,1.97
2023-12-22T21:23:49.036Z,2.87
2023-12-22T21:26:21.966Z,2.33
2023-12-22T21:28:51.038Z,2.50
2023-12-22T21:31:20.051Z,1.83
2023-12-22T21:33:48.231Z,2.47
2023-12-22T21:36:24.670Z,2.10
2023-12-22T21:38:53.458Z,2.07
2023-12-22T21:41:22.727Z,1.97
2023-12-22T21:43:51.273Z,1.73
2023-12-22T21:46:19.535Z,2.00
2023-12-22T21:48:47.602Z,2.03
2023-12-22T21:51:15.782Z,2.10
2023-12-22T21:53:45.358Z,2.03
2023-12-22T21:56:21.440Z,1.93
2023-12-22T21:58:49.608Z,1.90
2023-12-22T22:01:18.532Z,1.50
2023-12-22T22:03:49.080Z,2.20
2023-12-22T22:06:17.376Z,2.00
2023-12-22T22:08:47.542Z,1.90
2023-12-22T22:11:16.304Z,2.00
2023-12-22T22:13:44.602Z,2.63
2023-12-22T22:16:12.912Z,1.53
2023-12-22T22:18:41.424Z,2.00
2023-12-22T22:21:09.615Z,2.10
2023-12-22T22:23:37.874Z,2.10
2023-12-22T22:26:07.806Z,1.70
2023-12-22T22:28:36.288Z,1.73
2023-12-22T22:31:04.936Z,2.03
2023-12-22T22:33:33.204Z,2.00
2023-12-22T22:36:02.479Z,1.60
2023-12-22T22:38:30.740Z,2.10
2023-12-22T22:40:58.867Z,1.80
2023-12-22T22:43:28.620Z,1.80
2023-12-22T22:45:56.752Z,2.10
2023-12-22T22:48:25.091Z,1.90
2023-12-22T22:50:53.841Z,1.67
2023-12-22T22:53:21.964Z,2.10
2023-12-22T22:55:52.014Z,2.23
2023-12-22T22:58:20.160Z,1.50
2023-12-22T23:00:49.884Z,1.83
2023-12-22T23:03:18.220Z,2.70
2023-12-22T23:05:47.573Z,1.60
2023-12-22T23:08:15.820Z,1.83
2023-12-22T23:10:46.337Z,2.23
2023-12-22T23:13:14.524Z,1.90
2023-12-22T23:15:42.569Z,1.63
2023-12-22T23:18:12.530Z,1.60
2023-12-22T23:20:40.681Z,2.03
2023-12-22T23:23:09.232Z,2.00
2023-12-22T23:25:37.472Z,2.30
2023-12-22T23:28:06.201Z,2.00
2023-12-22T23:30:34.257Z,1.77
2023-12-22T23:33:02.520Z,3.07
2023-12-22T23:35:32.070Z,2.07
2023-12-22T23:38:00.174Z,1.80
2023-12-22T23:40:28.442Z,1.47
2023-12-22T23:42:56.709Z,1.60
2023-12-22T23:45:24.800Z,2.10
2023-12-22T23:47:53.354Z,1.60
2023-12-22T23:50:22.066Z,1.63
2023-12-22T23:52:51.658Z,1.90
2023-12-22T23:55:19.760Z,1.53
2023-12-22T23:57:48.074Z,1.57
